SBDN/PPB METAR and TAF weather

Enter ICAO airport designator
Station Type Date Time Source
SBDN METAR 2022/08/16 20:00 UTC NOAA

SBDN 162000Z 17016KT 9999 SCT050 FEW060TCU OVC100 23/19 Q1010


Station Type Date Time Source
SBDN Decoded METAR 2022/08/16 20:00 UTC NOAA

Presidente Prudente, Brazil (SBDN) 22-07S 051-23W
Aug 16, 2022 - 04:00 PM EDT / 2022.08.16 2000 UTC
Wind: from the S (170 degrees) at 18 MPH (16 KT):0
Visibility: greater than 7 mile(s):0
Sky conditions: overcast
Weather: Towering cumulus clouds observed
Temperature: 73 F (23 C)
Dew Point: 66 F (19 C)
Relative Humidity: 78%
Pressure (altimeter): 29.83 in. Hg (1010 hPa)
ob: SBDN 162000Z 17016KT 9999 SCT050 FEW060TCU OVC100 23/19 Q1010
cycle: 20

Station Type Date Time Source
SBDN TAF 2022/08/16 18:33 UTC NOAA

TAF SBDN 161400Z 1618/1706 34012KT 9999 FEW040 TX33/1618Z TN20/1705Z
BECMG 1622/1624 18005KT PROB30 1700/1706 8000 RA BKN030
RMK PGG

Example: see airport list